createdAt,value
2022-11-01T00:01:28.575Z,99.90
2022-11-01T00:03:55.777Z,99.90
2022-11-01T00:06:23.536Z,99.90
2022-11-01T00:08:50.729Z,99.90
2022-11-01T00:11:22.979Z,99.90
2022-11-01T00:13:50.865Z,99.90
2022-11-01T00:16:21.536Z,99.90
2022-11-01T00:18:49.007Z,99.90
2022-11-01T00:21:19.112Z,99.90
2022-11-01T00:23:46.293Z,99.90
2022-11-01T00:26:23.740Z,99.90
2022-11-01T00:28:53.662Z,99.90
2022-11-01T00:31:21.827Z,99.90
2022-11-01T00:33:49.009Z,99.90
2022-11-01T00:36:16.498Z,99.90
2022-11-01T00:38:43.735Z,99.90
2022-11-01T00:41:10.971Z,99.90
2022-11-01T00:43:38.006Z,99.90
2022-11-01T00:46:10.091Z,99.90
2022-11-01T00:48:39.688Z,99.90
2022-11-01T00:51:07.182Z,99.90
2022-11-01T00:53:34.291Z,99.90
2022-11-01T00:56:05.536Z,99.90
2022-11-01T00:58:33.511Z,99.90
2022-11-01T01:01:00.991Z,99.90
2022-11-01T01:03:28.188Z,99.90
2022-11-01T01:05:55.951Z,99.90
2022-11-01T01:08:25.459Z,99.90
2022-11-01T01:10:53.465Z,99.90
2022-11-01T01:13:21.662Z,99.90
2022-11-01T01:15:51.186Z,99.90
2022-11-01T01:18:20.512Z,99.90
2022-11-01T01:20:50.238Z,99.90
2022-11-01T01:23:19.518Z,99.90
2022-11-01T01:25:46.738Z,99.90
2022-11-01T01:28:16.215Z,99.90
2022-11-01T01:30:43.476Z,99.90
2022-11-01T01:35:43.165Z,99.90
2022-11-01T01:38:10.302Z,99.90
2022-11-01T01:40:37.576Z,99.90
2022-11-01T01:43:08.916Z,99.90
2022-11-01T01:45:37.240Z,99.90
2022-11-01T01:48:16.225Z,99.90
2022-11-01T01:50:52.108Z,99.90
2022-11-01T01:53:30.190Z,99.90
2022-11-01T01:56:04.097Z,99.90
2022-11-01T01:58:32.988Z,99.90
2022-11-01T02:01:00.998Z,99.90
2022-11-01T02:03:32.163Z,99.90
2022-11-01T02:06:12.547Z,99.90
2022-11-01T02:08:46.401Z,99.90
2022-11-01T02:11:15.249Z,99.90
2022-11-01T02:13:45.360Z,99.90
2022-11-01T02:16:42.241Z,99.90
2022-11-01T02:19:30.958Z,99.90
2022-11-01T02:22:10.506Z,99.90
2022-11-01T02:24:56.515Z,99.90
2022-11-01T02:27:39.478Z,99.90
2022-11-01T02:30:09.078Z,99.90
2022-11-01T02:33:00.093Z,99.90
2022-11-01T02:35:46.734Z,99.90
2022-11-01T02:38:32.194Z,99.90
2022-11-01T02:41:13.295Z,99.90
2022-11-01T02:43:59.817Z,99.90
2022-11-01T02:46:30.282Z,99.90
2022-11-01T02:48:59.871Z,99.90
2022-11-01T02:51:30.003Z,99.90
2022-11-01T02:54:05.441Z,99.90
2022-11-01T02:56:35.107Z,99.90
2022-11-01T02:59:12.391Z,99.90
2022-11-01T03:01:42.544Z,99.90
2022-11-01T03:04:10.294Z,99.90
2022-11-01T03:06:42.991Z,99.90
2022-11-01T03:09:12.196Z,99.90
2022-11-01T03:11:54.141Z,99.90
2022-11-01T03:14:44.857Z,99.90
2022-11-01T03:17:25.413Z,99.90
2022-11-01T03:20:12.933Z,99.90
2022-11-01T03:23:06.332Z,99.90
2022-11-01T03:25:40.505Z,99.90
2022-11-01T03:28:20.455Z,99.90
2022-11-01T03:30:59.110Z,99.90
2022-11-01T03:33:29.112Z,99.90
2022-11-01T03:36:03.739Z,99.90
2022-11-01T03:38:36.453Z,99.90
2022-11-01T03:41:06.601Z,99.90
2022-11-01T03:43:36.297Z,99.90
2022-11-01T03:46:04.218Z,99.90
2022-11-01T03:48:31.498Z,99.90
2022-11-01T03:51:01.094Z,99.90
2022-11-01T03:53:28.172Z,99.90
2022-11-01T03:55:55.757Z,99.90
2022-11-01T03:58:25.371Z,99.90
2022-11-01T04:00:52.694Z,99.90
2022-11-01T04:03:24.514Z,99.90
2022-11-01T04:05:53.971Z,99.90
2022-11-01T04:08:23.377Z,99.90
2022-11-01T04:10:50.696Z,99.90
2022-11-01T04:13:17.953Z,99.90
2022-11-01T04:15:45.311Z,99.90
2022-11-01T04:18:23.641Z,99.90
2022-11-01T04:20:54.458Z,99.90
2022-11-01T04:23:23.873Z,99.90
2022-11-01T04:25:53.469Z,99.90
2022-11-01T04:28:20.571Z,99.90
2022-11-01T04:30:48.080Z,99.90
2022-11-01T04:33:15.478Z,99.90
2022-11-01T04:35:43.315Z,99.90
2022-11-01T04:38:13.291Z,99.90
2022-11-01T04:40:42.023Z,99.90
2022-11-01T04:43:10.401Z,99.90
2022-11-01T04:45:37.829Z,99.90
2022-11-01T04:48:11.671Z,99.90
2022-11-01T04:50:40.886Z,99.90
2022-11-01T04:53:08.322Z,99.90
2022-11-01T04:55:35.655Z,99.90
2022-11-01T04:58:03.091Z,99.90
2022-11-01T05:00:30.633Z,99.90
2022-11-01T05:03:03.074Z,99.90
2022-11-01T05:05:33.876Z,99.90
2022-11-01T05:08:05.158Z,99.90
2022-11-01T05:10:36.455Z,99.90
2022-11-01T05:13:04.651Z,99.90
2022-11-01T05:15:40.271Z,99.90
2022-11-01T05:18:15.355Z,99.90
2022-11-01T05:20:42.722Z,99.90
2022-11-01T05:23:10.041Z,99.90
2022-11-01T05:25:38.359Z,99.90
2022-11-01T05:28:08.506Z,99.90
2022-11-01T05:30:36.916Z,99.90
2022-11-01T05:33:05.485Z,99.90
2022-11-01T05:35:36.002Z,99.90
2022-11-01T05:38:06.106Z,99.90
2022-11-01T05:40:36.013Z,99.90
2022-11-01T05:43:05.549Z,99.90
2022-11-01T05:45:35.259Z,99.90
2022-11-01T05:48:05.638Z,99.90
2022-11-01T05:50:32.891Z,99.90
2022-11-01T05:53:09.751Z,99.90
2022-11-01T05:55:37.314Z,99.90
2022-11-01T05:58:04.906Z,99.90
2022-11-01T06:00:33.355Z,99.90
2022-11-01T06:03:01.235Z,99.90
2022-11-01T06:05:30.044Z,99.90
2022-11-01T06:07:57.795Z,99.90
2022-11-01T06:10:25.240Z,99.90
2022-11-01T06:12:52.376Z,99.90
2022-11-01T06:15:19.663Z,99.90
2022-11-01T06:17:54.687Z,99.90
2022-11-01T06:20:25.042Z,99.90
2022-11-01T06:22:52.138Z,99.90
2022-11-01T06:25:19.601Z,99.90
2022-11-01T06:27:48.895Z,99.90
2022-11-01T06:30:16.511Z,99.90
2022-11-01T06:32:46.302Z,99.90
2022-11-01T06:35:13.605Z,99.90
2022-11-01T06:37:40.761Z,99.90
2022-11-01T06:40:08.553Z,99.90
2022-11-01T06:42:35.697Z,99.90
2022-11-01T06:45:03.111Z,99.90
2022-11-01T06:47:30.476Z,99.90
2022-11-01T06:49:57.897Z,99.90
2022-11-01T06:52:25.021Z,99.90
2022-11-01T06:54:54.703Z,99.90
2022-11-01T06:57:21.795Z,99.90
2022-11-01T06:59:49.135Z,99.90
2022-11-01T07:02:19.500Z,99.90
2022-11-01T07:04:47.267Z,99.90
2022-11-01T07:07:16.287Z,99.20
2022-11-01T07:09:43.536Z,98.80
2022-11-01T07:12:10.636Z,98.70
2022-11-01T07:14:37.985Z,98.60
2022-11-01T07:17:05.069Z,97.70
2022-11-01T07:19:32.443Z,95.30
2022-11-01T07:22:01.824Z,91.50
2022-11-01T07:24:31.293Z,84.20
2022-11-01T07:27:03.005Z,74.70
2022-11-01T07:29:32.683Z,69.10
2022-11-01T07:32:02.344Z,66.20
2022-11-01T07:34:29.680Z,65.00
2022-11-01T07:36:56.824Z,64.80
2022-11-01T07:39:24.189Z,64.00
2022-11-01T07:41:53.389Z,63.20
2022-11-01T07:44:21.668Z,61.40
2022-11-01T07:46:48.870Z,60.60
2022-11-01T07:49:16.103Z,59.60
2022-11-01T07:51:43.255Z,59.20
2022-11-01T07:54:13.839Z,60.00
2022-11-01T07:56:40.890Z,61.00
2022-11-01T07:59:12.938Z,61.10
2022-11-01T08:01:40.187Z,62.20
2022-11-01T08:04:07.525Z,63.30
2022-11-01T08:06:34.636Z,64.60
2022-11-01T08:09:02.000Z,66.90
2022-11-01T08:11:29.058Z,67.90
2022-11-01T08:14:02.862Z,68.80
2022-11-01T08:16:32.470Z,69.60
2022-11-01T08:18:59.851Z,67.50
2022-11-01T08:21:27.218Z,63.60
2022-11-01T08:23:54.435Z,59.50
2022-11-01T08:26:21.661Z,55.50
2022-11-01T08:28:51.176Z,53.30
2022-11-01T08:31:20.539Z,51.40
2022-11-01T08:33:50.382Z,48.70
2022-11-01T08:36:20.020Z,47.20
2022-11-01T08:38:47.379Z,46.20
2022-11-01T08:41:17.054Z,45.70
2022-11-01T08:43:44.297Z,45.30
2022-11-01T08:46:11.301Z,45.10
2022-11-01T08:48:43.415Z,44.70
2022-11-01T08:51:10.593Z,44.30
2022-11-01T08:53:38.248Z,43.90
2022-11-01T08:56:07.975Z,44.60
2022-11-01T08:58:35.170Z,47.20
2022-11-01T09:01:02.197Z,49.90
2022-11-01T09:03:32.149Z,52.90
2022-11-01T09:06:01.758Z,55.90
2022-11-01T09:08:29.110Z,60.20
2022-11-01T09:10:59.980Z,63.80
2022-11-01T09:13:27.473Z,66.20
2022-11-01T09:16:01.417Z,68.50
2022-11-01T09:18:30.158Z,71.00
2022-11-01T09:20:57.398Z,74.30
2022-11-01T09:23:24.918Z,76.60
2022-11-01T09:26:00.949Z,79.00
2022-11-01T09:28:33.860Z,82.50
2022-11-01T09:31:19.635Z,86.30
2022-11-01T09:33:48.163Z,89.30
2022-11-01T09:36:15.955Z,91.50
2022-11-01T09:38:43.160Z,92.10
2022-11-01T09:41:39.981Z,91.50
2022-11-01T09:44:11.640Z,91.20
2022-11-01T09:46:48.521Z,90.70
2022-11-01T09:49:23.594Z,90.90
2022-11-01T09:51:51.560Z,90.00
2022-11-01T09:54:25.663Z,89.90
2022-11-01T09:56:58.625Z,87.30
2022-11-01T09:59:25.855Z,85.10
2022-11-01T10:02:24.824Z,84.10
2022-11-01T10:05:06.985Z,84.40
2022-11-01T10:07:37.227Z,84.20
2022-11-01T10:10:04.576Z,83.70
2022-11-01T10:12:40.529Z,80.60
2022-11-01T10:15:20.448Z,78.30
2022-11-01T10:18:02.461Z,74.00
2022-11-01T10:20:34.396Z,69.70
2022-11-01T10:23:04.081Z,65.10
2022-11-01T10:25:34.297Z,62.40
2022-11-01T10:28:13.236Z,59.90
2022-11-01T10:31:00.580Z,59.80
2022-11-01T10:33:46.427Z,61.60
2022-11-01T10:36:17.447Z,63.30
2022-11-01T10:39:36.998Z,66.00
2022-11-01T10:41:50.105Z,68.70
2022-11-01T10:44:43.282Z,70.80
2022-11-01T10:47:16.506Z,72.50
2022-11-01T10:50:05.522Z,74.00
2022-11-01T10:52:44.670Z,74.50
2022-11-01T10:55:17.527Z,75.20
2022-11-01T10:57:51.678Z,75.80
2022-11-01T11:00:21.157Z,76.10
2022-11-01T11:02:54.037Z,75.60
2022-11-01T11:05:23.296Z,74.70
2022-11-01T11:07:51.010Z,73.70
2022-11-01T11:10:28.073Z,72.10
2022-11-01T11:13:05.253Z,71.90
2022-11-01T11:15:50.060Z,72.20
2022-11-01T11:18:34.651Z,73.80
2022-11-01T11:21:05.381Z,75.00
2022-11-01T11:23:33.469Z,75.60
2022-11-01T11:26:08.185Z,77.90
2022-11-01T11:28:40.857Z,78.80
2022-11-01T11:31:31.563Z,79.80
2022-11-01T11:34:21.526Z,81.70
2022-11-01T11:36:49.465Z,82.40
2022-11-01T11:39:58.796Z,83.90
2022-11-01T11:42:26.130Z,86.20
2022-11-01T11:45:22.573Z,86.50
2022-11-01T11:47:50.292Z,87.40
2022-11-01T11:50:20.787Z,88.10
2022-11-01T11:52:50.556Z,87.90
2022-11-01T11:55:56.133Z,88.00
2022-11-01T11:58:36.606Z,89.10
2022-11-01T12:01:07.878Z,89.30
2022-11-01T12:03:44.231Z,90.00
2022-11-01T12:06:19.117Z,90.20
2022-11-01T12:08:48.245Z,90.10
2022-11-01T12:11:16.109Z,90.20
2022-11-01T12:13:45.770Z,90.50
2022-11-01T12:16:13.190Z,90.90
2022-11-01T12:19:00.871Z,91.00
2022-11-01T12:21:40.246Z,90.90
2022-11-01T12:24:24.583Z,91.10
2022-11-01T12:26:55.329Z,91.30
2022-11-01T12:29:36.227Z,91.60
2022-11-01T12:32:28.908Z,91.70
2022-11-01T12:35:00.940Z,91.90
2022-11-01T12:37:42.969Z,91.80
2022-11-01T12:40:16.181Z,91.90
2022-11-01T12:42:56.495Z,92.20
2022-11-01T12:45:35.671Z,92.50
2022-11-01T12:48:24.147Z,92.80
2022-11-01T12:51:25.921Z,93.30
2022-11-01T12:54:00.304Z,93.70
2022-11-01T12:56:29.736Z,94.30
2022-11-01T12:58:58.026Z,94.80
2022-11-01T13:01:42.887Z,95.00
2022-11-01T13:04:28.961Z,95.10
2022-11-01T13:07:30.682Z,95.30
2022-11-01T13:09:58.194Z,95.40
2022-11-01T13:12:53.038Z,95.60
2022-11-01T13:15:43.047Z,95.70
2022-11-01T13:18:13.024Z,96.00
2022-11-01T13:20:48.247Z,96.20
2022-11-01T13:23:34.036Z,96.40
2022-11-01T13:26:30.011Z,96.60
2022-11-01T13:29:24.983Z,96.70
2022-11-01T13:32:11.420Z,97.10
2022-11-01T13:35:16.287Z,97.40
2022-11-01T13:38:20.490Z,98.00
2022-11-01T13:41:10.823Z,98.60
2022-11-01T13:43:43.569Z,99.40
2022-11-01T13:46:16.684Z,99.80
2022-11-01T13:48:55.835Z,99.90
2022-11-01T13:51:31.885Z,99.90
2022-11-01T13:54:18.051Z,99.90
2022-11-01T13:57:01.217Z,99.90
2022-11-01T13:59:53.725Z,99.90
2022-11-01T14:02:24.307Z,99.90
2022-11-01T14:04:56.059Z,99.90
2022-11-01T14:07:23.062Z,99.90
2022-11-01T14:09:54.597Z,99.90
2022-11-01T14:12:46.627Z,99.90
2022-11-01T14:15:18.706Z,99.90
2022-11-01T14:17:51.686Z,99.90
2022-11-01T14:20:31.232Z,99.90
2022-11-01T14:23:26.922Z,99.90
2022-11-01T14:26:19.121Z,99.90
2022-11-01T14:28:54.498Z,99.90
2022-11-01T14:31:26.505Z,99.90
2022-11-01T14:33:57.497Z,99.90
2022-11-01T14:36:31.069Z,99.90
2022-11-01T14:39:17.716Z,99.90
2022-11-01T14:41:48.589Z,99.90
2022-11-01T14:44:36.642Z,99.90
2022-11-01T14:47:21.189Z,99.90
2022-11-01T14:49:52.773Z,99.90
2022-11-01T14:52:29.069Z,99.90
2022-11-01T14:55:02.410Z,99.90
2022-11-01T14:57:33.473Z,99.90
2022-11-01T15:00:26.516Z,99.90
2022-11-01T15:03:00.871Z,99.90
2022-11-01T15:05:28.483Z,99.90
2022-11-01T15:07:58.548Z,99.90
2022-11-01T15:10:26.008Z,99.90
2022-11-01T15:12:59.516Z,99.90
2022-11-01T15:15:30.610Z,99.90
2022-11-01T15:18:04.622Z,99.90
2022-11-01T15:20:40.415Z,99.90
2022-11-01T15:23:14.478Z,99.90
2022-11-01T15:25:50.448Z,99.90
2022-11-01T15:28:29.181Z,99.90
2022-11-01T15:30:58.417Z,99.90
2022-11-01T15:33:29.917Z,99.90
2022-11-01T15:36:17.731Z,99.90
2022-11-01T15:38:55.322Z,99.90
2022-11-01T15:41:26.417Z,99.90
2022-11-01T15:43:58.078Z,99.90
2022-11-01T15:46:31.361Z,99.90
2022-11-01T15:49:04.702Z,99.90
2022-11-01T15:51:32.390Z,99.90
2022-11-01T15:54:06.448Z,99.90
2022-11-01T15:56:44.428Z,99.90
2022-11-01T15:59:24.457Z,99.90
2022-11-01T16:01:51.798Z,99.90
2022-11-01T16:04:20.271Z,99.90
2022-11-01T16:06:56.838Z,99.90
2022-11-01T16:09:44.574Z,99.90
2022-11-01T16:12:28.629Z,99.90
2022-11-01T16:15:04.139Z,99.90
2022-11-01T16:17:37.279Z,99.90
2022-11-01T16:20:25.046Z,99.90
2022-11-01T16:22:53.370Z,99.90
2022-11-01T16:25:22.922Z,99.90
2022-11-01T16:28:04.607Z,99.90
2022-11-01T16:30:55.727Z,99.90
2022-11-01T16:33:34.706Z,99.90
2022-11-01T16:36:35.566Z,99.90
2022-11-01T16:39:23.055Z,99.90
2022-11-01T16:41:50.551Z,99.90
2022-11-01T16:44:17.617Z,99.90
2022-11-01T16:46:44.994Z,99.90
2022-11-01T16:49:24.274Z,99.90
2022-11-01T16:51:53.498Z,99.90
2022-11-01T16:54:21.491Z,99.90
2022-11-01T16:56:54.368Z,99.90
2022-11-01T16:59:26.385Z,99.90
2022-11-01T17:01:56.579Z,99.90
2022-11-01T17:04:24.647Z,99.90
2022-11-01T17:06:52.434Z,99.90
2022-11-01T17:09:21.517Z,99.90
2022-11-01T17:11:51.370Z,99.90
2022-11-01T17:14:20.067Z,99.90
2022-11-01T17:16:49.562Z,99.90
2022-11-01T17:19:22.864Z,99.90
2022-11-01T17:21:51.041Z,99.90
2022-11-01T17:24:24.231Z,99.90
2022-11-01T17:26:54.227Z,99.90
2022-11-01T17:29:21.584Z,99.90
2022-11-01T17:31:49.041Z,99.90
2022-11-01T17:34:16.140Z,99.90
2022-11-01T17:36:48.437Z,99.90
2022-11-01T17:39:15.763Z,99.90
2022-11-01T17:41:43.384Z,99.90
2022-11-01T17:44:13.509Z,99.90
2022-11-01T17:46:40.801Z,99.90
2022-11-01T17:49:09.321Z,99.90
2022-11-01T17:51:36.731Z,99.90
2022-11-01T17:54:06.180Z,99.90
2022-11-01T17:56:34.122Z,99.90
2022-11-01T17:59:03.526Z,99.90
2022-11-01T18:01:31.040Z,99.90
2022-11-01T18:03:58.368Z,99.90
2022-11-01T18:06:26.046Z,99.90
2022-11-01T18:08:53.178Z,99.90
2022-11-01T18:11:43.892Z,99.90
2022-11-01T18:14:36.999Z,99.90
2022-11-01T18:17:48.448Z,99.90
2022-11-01T18:20:49.444Z,99.90
2022-11-01T18:23:23.009Z,99.90
2022-11-01T18:25:51.356Z,99.90
2022-11-01T18:28:32.533Z,99.90
2022-11-01T18:31:13.396Z,99.90
2022-11-01T18:33:43.516Z,99.90
2022-11-01T18:36:48.247Z,99.90
2022-11-01T18:39:42.071Z,99.90
2022-11-01T18:42:10.073Z,99.90
2022-11-01T18:44:40.209Z,99.90
2022-11-01T18:47:17.342Z,99.90
2022-11-01T18:49:45.838Z,99.90
2022-11-01T18:52:20.296Z,99.90
2022-11-01T18:54:56.624Z,99.90
2022-11-01T18:57:24.484Z,99.90
2022-11-01T18:59:53.277Z,99.90
2022-11-01T19:02:25.661Z,99.90
2022-11-01T19:05:10.496Z,99.90
2022-11-01T19:08:04.808Z,99.90
2022-11-01T19:10:25.076Z,99.90
2022-11-01T19:12:54.853Z,99.90
2022-11-01T19:15:24.920Z,99.90
2022-11-01T19:17:59.642Z,99.90
2022-11-01T19:20:38.698Z,99.90
2022-11-01T19:23:48.988Z,99.90
2022-11-01T19:26:32.357Z,99.90
2022-11-01T19:29:00.011Z,99.90
2022-11-01T19:31:37.061Z,99.90
2022-11-01T19:34:11.523Z,99.90
2022-11-01T19:36:41.088Z,99.90
2022-11-01T19:39:20.479Z,99.90
2022-11-01T19:41:47.909Z,99.90
2022-11-01T19:44:33.251Z,99.90
2022-11-01T19:47:19.287Z,99.90
2022-11-01T19:49:49.460Z,99.90
2022-11-01T19:52:28.531Z,99.90
2022-11-01T19:54:58.160Z,99.90
2022-11-01T19:57:37.551Z,99.90
2022-11-01T20:00:21.021Z,99.90
2022-11-01T20:02:50.527Z,99.90
2022-11-01T20:05:33.152Z,99.90
2022-11-01T20:08:12.347Z,99.90
2022-11-01T20:10:39.509Z,99.90
2022-11-01T20:13:09.563Z,99.90
2022-11-01T20:15:36.673Z,99.90
2022-11-01T20:18:04.322Z,99.90
2022-11-01T20:20:33.974Z,99.90
2022-11-01T20:23:24.691Z,99.90
2022-11-01T20:25:48.705Z,99.90
2022-11-01T20:28:15.968Z,99.90
2022-11-01T20:30:45.325Z,99.90
2022-11-01T20:33:15.409Z,99.90
2022-11-01T20:35:42.426Z,99.90
2022-11-01T20:38:09.999Z,99.90
2022-11-01T20:40:37.241Z,99.90
2022-11-01T20:43:04.884Z,99.90
2022-11-01T20:45:34.913Z,99.90
2022-11-01T20:48:05.300Z,99.90
2022-11-01T20:50:33.098Z,99.90
2022-11-01T20:53:00.590Z,99.90
2022-11-01T20:55:28.265Z,99.90
2022-11-01T20:57:55.618Z,99.90
2022-11-01T21:00:22.663Z,99.90
2022-11-01T21:02:51.140Z,99.90
2022-11-01T21:05:27.123Z,99.90
2022-11-01T21:08:00.284Z,99.90
2022-11-01T21:10:35.793Z,99.90
2022-11-01T21:13:21.255Z,99.90
2022-11-01T21:15:49.281Z,99.90
2022-11-01T21:18:16.748Z,99.90
2022-11-01T21:20:49.078Z,99.90
2022-11-01T21:23:28.405Z,99.90
2022-11-01T21:25:57.492Z,99.90
2022-11-01T21:28:28.336Z,99.90
2022-11-01T21:31:16.647Z,99.90
2022-11-01T21:33:50.132Z,99.90
2022-11-01T21:36:20.029Z,99.90
2022-11-01T21:38:48.935Z,99.90
2022-11-01T21:41:31.222Z,99.90
2022-11-01T21:44:14.251Z,99.90
2022-11-01T21:46:42.577Z,99.90
2022-11-01T21:49:23.334Z,99.90
2022-11-01T21:51:50.812Z,99.90
2022-11-01T21:54:18.316Z,99.90
2022-11-01T21:56:45.342Z,99.90
2022-11-01T21:59:12.627Z,99.90
2022-11-01T22:01:45.460Z,99.90
2022-11-01T22:04:16.240Z,99.90
2022-11-01T22:06:43.857Z,99.90
2022-11-01T22:09:14.618Z,99.90
2022-11-01T22:11:44.676Z,99.90
2022-11-01T22:14:12.493Z,99.90
2022-11-01T22:16:39.896Z,99.90
2022-11-01T22:19:07.710Z,99.90
2022-11-01T22:21:35.562Z,99.90
2022-11-01T22:24:03.796Z,99.90
2022-11-01T22:26:33.259Z,99.90
2022-11-01T22:29:03.654Z,99.90
2022-11-01T22:31:31.218Z,99.90
2022-11-01T22:34:01.486Z,99.90
2022-11-01T22:36:31.044Z,99.90
2022-11-01T22:38:59.957Z,99.90
2022-11-01T22:41:34.852Z,99.90
2022-11-01T22:44:10.087Z,99.90
2022-11-01T22:46:43.178Z,99.90
2022-11-01T22:49:19.709Z,99.90
2022-11-01T22:51:53.588Z,99.90
2022-11-01T22:54:20.902Z,99.90
2022-11-01T22:56:57.986Z,99.90
2022-11-01T22:59:29.315Z,99.90
2022-11-01T23:02:23.163Z,99.90
2022-11-01T23:05:01.500Z,99.90
2022-11-01T23:07:36.399Z,99.90
2022-11-01T23:10:07.158Z,99.90
2022-11-01T23:12:36.604Z,99.90
2022-11-01T23:15:04.554Z,99.90
2022-11-01T23:17:36.257Z,99.90
2022-11-01T23:20:04.319Z,99.90
2022-11-01T23:22:39.163Z,99.90
2022-11-01T23:25:08.349Z,99.90
2022-11-01T23:27:36.040Z,99.90
2022-11-01T23:30:06.198Z,99.90
2022-11-01T23:32:33.349Z,99.90
2022-11-01T23:35:14.007Z,99.90
2022-11-01T23:37:43.079Z,99.90
2022-11-01T23:40:20.513Z,99.90
2022-11-01T23:42:53.424Z,99.90
2022-11-01T23:45:34.387Z,99.90
2022-11-01T23:48:02.082Z,99.90
2022-11-01T23:50:35.010Z,99.90
2022-11-01T23:53:10.360Z,99.90
2022-11-01T23:55:40.520Z,99.90
2022-11-01T23:58:12.760Z,99.90
